KLM1163 EHAM-ENBR
Flight info
| Callsign | KLM1163 |
|---|---|
| Flight time | 1h 31m |
| Altitude | 34000 |
| Route | EHAM/36C LUROS4B LUROS M725 HDO DCT EVIKU/N0461F350 DCT VOZ DCT TABEM DCT LANUX DCT INSAX DCT RODON DCT LIMJA N732 PITAS PITAS2J |
| Aircraft | B738/M-SDE3/2105 |
Departure
| Time | 2026-05-06 18:40 |
|---|---|
| Airport | Amsterdam Airport Schiphol (EHAM) |
Arrival
| Time | 2026-05-06 20:11 |
|---|---|
| Airport | Bergen Airport, Flesland (ENBR) |
| Time | Latitude | Longitude | Altitude | Speed | Heading |
|---|---|---|---|---|---|
| 2026-05-06 17:57 | 52.30892 | 4.77236 | 12 ft | 0 kts | 2° |
| 2026-05-06 18:10 | 52.30889 | 4.77299 | 12 ft | 0 kts | 2° |
| 2026-05-06 18:11 | 52.30892 | 4.77236 | 12 ft | 0 kts | 2° |
| 2026-05-06 18:26 | 52.30884 | 4.77235 | 12 ft | 2 kts | 2° |
| 2026-05-06 18:26 | 52.30869 | 4.77235 | 12 ft | 2 kts | 2° |
| 2026-05-06 18:26 | 52.30854 | 4.77231 | 12 ft | 2 kts | 37° |
| 2026-05-06 18:26 | 52.30845 | 4.77212 | 12 ft | 2 kts | 75° |
| 2026-05-06 18:27 | 52.30845 | 4.77188 | 12 ft | 1 kts | 101° |
| 2026-05-06 18:27 | 52.30846 | 4.77181 | 12 ft | 0 kts | 97° |
| 2026-05-06 18:30 | 52.30844 | 4.77199 | 12 ft | 5 kts | 96° |
| 2026-05-06 18:31 | 52.30841 | 4.77305 | 12 ft | 12 kts | 93° |
| 2026-05-06 18:31 | 52.30835 | 4.77456 | 9 ft | 14 kts | 93° |
| 2026-05-06 18:31 | 52.30803 | 4.77598 | 8 ft | 14 kts | 166° |
| 2026-05-06 18:31 | 52.30685 | 4.77591 | 6 ft | 18 kts | 189° |
| 2026-05-06 18:32 | 52.30641 | 4.77446 | 8 ft | 14 kts | 265° |
| 2026-05-06 18:32 | 52.30595 | 4.77302 | 7 ft | 14 kts | 237° |
| 2026-05-06 18:32 | 52.30527 | 4.77124 | 5 ft | 23 kts | 238° |
| 2026-05-06 18:32 | 52.30426 | 4.76863 | 0 ft | 28 kts | 238° |
| 2026-05-06 18:33 | 52.30322 | 4.76590 | -1 ft | 28 kts | 238° |
| 2026-05-06 18:33 | 52.30221 | 4.76329 | 0 ft | 23 kts | 239° |
| 2026-05-06 18:33 | 52.30135 | 4.76105 | 0 ft | 22 kts | 238° |
| 2026-05-06 18:33 | 52.30051 | 4.75884 | 0 ft | 25 kts | 239° |
| 2026-05-06 18:34 | 52.29955 | 4.75634 | -1 ft | 22 kts | 238° |
| 2026-05-06 18:34 | 52.29872 | 4.75421 | 0 ft | 22 kts | 237° |
| 2026-05-06 18:34 | 52.29843 | 4.75195 | 0 ft | 15 kts | 298° |
| 2026-05-06 18:34 | 52.29901 | 4.75081 | 2 ft | 16 kts | 310° |
| 2026-05-06 18:35 | 52.29995 | 4.74909 | 1 ft | 23 kts | 311° |
| 2026-05-06 18:35 | 52.30086 | 4.74740 | 0 ft | 13 kts | 311° |
| 2026-05-06 18:35 | 52.30154 | 4.74614 | -4 ft | 15 kts | 312° |
| 2026-05-06 18:35 | 52.30235 | 4.74465 | -7 ft | 20 kts | 313° |
| 2026-05-06 18:36 | 52.30329 | 4.74285 | -11 ft | 18 kts | 298° |
| 2026-05-06 18:36 | 52.30310 | 4.74143 | -13 ft | 0 kts | 232° |
| 2026-05-06 18:36 | 52.30309 | 4.74141 | -13 ft | 2 kts | 234° |
| 2026-05-06 18:36 | 52.30320 | 4.74079 | -12 ft | 10 kts | 293° |
| 2026-05-06 18:37 | 52.30264 | 4.73961 | -12 ft | 17 kts | 215° |
| 2026-05-06 18:37 | 52.30212 | 4.73904 | -12 ft | 0 kts | 216° |
| 2026-05-06 18:37 | 52.30207 | 4.73896 | -12 ft | 4 kts | 229° |
| 2026-05-06 18:38 | 52.30197 | 4.73794 | -10 ft | 11 kts | 275° |
| 2026-05-06 18:38 | 52.30249 | 4.73740 | -9 ft | 9 kts | 2° |
| 2026-05-06 18:38 | 52.30260 | 4.73740 | -9 ft | 0 kts | 2° |
| 2026-05-06 18:39 | 52.30274 | 4.73741 | -9 ft | 11 kts | 3° |
| 2026-05-06 18:39 | 52.30667 | 4.73779 | -9 ft | 100 kts | 5° |
| 2026-05-06 18:39 | 52.31639 | 4.73874 | 4 ft | 173 kts | 5° |
| 2026-05-06 18:40 | 52.34185 | 4.74154 | 1467 ft | 193 kts | 8° |
| 2026-05-06 18:40 | 52.35487 | 4.74114 | 2088 ft | 188 kts | 355° |
| 2026-05-06 18:40 | 52.36720 | 4.73566 | 2851 ft | 188 kts | 347° |
| 2026-05-06 18:40 | 52.37989 | 4.72898 | 3320 ft | 201 kts | 347° |
| 2026-05-06 18:41 | 52.39357 | 4.72156 | 3774 ft | 216 kts | 345° |
| 2026-05-06 18:41 | 52.40844 | 4.71317 | 3985 ft | 230 kts | 344° |
| 2026-05-06 18:41 | 52.42377 | 4.70419 | 4512 ft | 240 kts | 344° |
| 2026-05-06 18:41 | 52.43988 | 4.69482 | 5061 ft | 255 kts | 343° |
| 2026-05-06 18:42 | 52.45667 | 4.68528 | 5604 ft | 262 kts | 343° |
| 2026-05-06 18:42 | 52.47416 | 4.67552 | 6165 ft | 265 kts | 343° |
| 2026-05-06 18:42 | 52.49057 | 4.66268 | 6730 ft | 271 kts | 323° |
| 2026-05-06 18:42 | 52.50181 | 4.63809 | 7319 ft | 277 kts | 296° |
| 2026-05-06 18:43 | 52.50854 | 4.60816 | 7885 ft | 279 kts | 295° |
| 2026-05-06 18:43 | 52.51887 | 4.58148 | 8431 ft | 278 kts | 315° |
| 2026-05-06 18:43 | 52.53378 | 4.56233 | 8990 ft | 278 kts | 330° |
| 2026-05-06 18:43 | 52.55069 | 4.54641 | 9504 ft | 281 kts | 330° |
| 2026-05-06 18:44 | 52.56757 | 4.53022 | 10070 ft | 283 kts | 331° |
| 2026-05-06 18:44 | 52.58464 | 4.51448 | 10634 ft | 288 kts | 332° |
| 2026-05-06 18:44 | 52.60268 | 4.49773 | 11043 ft | 304 kts | 331° |
| 2026-05-06 18:44 | 52.62155 | 4.48053 | 11443 ft | 319 kts | 332° |
| 2026-05-06 18:45 | 52.64177 | 4.46244 | 11860 ft | 334 kts | 332° |
| 2026-05-06 18:45 | 52.66285 | 4.44374 | 12306 ft | 348 kts | 332° |
| 2026-05-06 18:45 | 52.68430 | 4.42483 | 12937 ft | 354 kts | 332° |
| 2026-05-06 18:45 | 52.70702 | 4.40860 | 13649 ft | 359 kts | 341° |
| 2026-05-06 18:46 | 52.73122 | 4.39779 | 14355 ft | 364 kts | 346° |
| 2026-05-06 18:46 | 52.75596 | 4.38924 | 15014 ft | 369 kts | 348° |
| 2026-05-06 18:46 | 52.78112 | 4.38070 | 15669 ft | 373 kts | 347° |
| 2026-05-06 18:46 | 52.80630 | 4.37159 | 16313 ft | 376 kts | 346° |
| 2026-05-06 18:47 | 52.83213 | 4.36163 | 16961 ft | 380 kts | 345° |
| 2026-05-06 18:47 | 52.85773 | 4.35126 | 17568 ft | 384 kts | 345° |
| 2026-05-06 18:47 | 52.88343 | 4.34055 | 18175 ft | 387 kts | 343° |
| 2026-05-06 18:47 | 52.90982 | 4.32938 | 18774 ft | 391 kts | 343° |
| 2026-05-06 18:48 | 52.93636 | 4.31808 | 19371 ft | 395 kts | 343° |
| 2026-05-06 18:48 | 52.96285 | 4.30677 | 19952 ft | 398 kts | 343° |
| 2026-05-06 18:48 | 52.98957 | 4.29536 | 20483 ft | 403 kts | 343° |
| 2026-05-06 18:48 | 53.01683 | 4.28372 | 21045 ft | 406 kts | 343° |
| 2026-05-06 18:49 | 53.04401 | 4.27210 | 21581 ft | 410 kts | 343° |
| 2026-05-06 18:49 | 53.07159 | 4.26031 | 22109 ft | 413 kts | 343° |
| 2026-05-06 18:49 | 53.09972 | 4.24827 | 22661 ft | 416 kts | 343° |
| 2026-05-06 18:49 | 53.12744 | 4.23643 | 23170 ft | 419 kts | 343° |
| 2026-05-06 18:50 | 53.15629 | 4.22783 | 23612 ft | 426 kts | 352° |
| 2026-05-06 18:50 | 53.18596 | 4.22675 | 24092 ft | 431 kts | 360° |
| 2026-05-06 18:50 | 53.21587 | 4.23051 | 24555 ft | 435 kts | 3° |
| 2026-05-06 18:50 | 53.24628 | 4.23629 | 25012 ft | 439 kts | 4° |
| 2026-05-06 18:51 | 53.27633 | 4.24239 | 25450 ft | 442 kts | 4° |
| 2026-05-06 18:51 | 53.30697 | 4.24841 | 25914 ft | 445 kts | 4° |
| 2026-05-06 18:51 | 53.33749 | 4.25405 | 26349 ft | 447 kts | 4° |
| 2026-05-06 18:51 | 53.34425 | 4.25525 | 26450 ft | 448 kts | 4° |
| 2026-05-06 18:52 | 53.37296 | 4.26017 | 26848 ft | 450 kts | 3° |
| 2026-05-06 18:52 | 53.40402 | 4.26523 | 27264 ft | 453 kts | 3° |
| 2026-05-06 18:53 | 53.43543 | 4.27013 | 27675 ft | 456 kts | 2° |
| 2026-05-06 18:53 | 53.46727 | 4.27497 | 28076 ft | 459 kts | 2° |
| 2026-05-06 18:53 | 53.49870 | 4.27963 | 28453 ft | 462 kts | 2° |
| 2026-05-06 18:53 | 53.53073 | 4.28431 | 28843 ft | 464 kts | 2° |
| 2026-05-06 18:54 | 53.56280 | 4.28895 | 29453 ft | 461 kts | 2° |
| 2026-05-06 18:54 | 53.59465 | 4.29354 | 30021 ft | 459 kts | 2° |
| 2026-05-06 18:54 | 53.62601 | 4.29804 | 30502 ft | 458 kts | 2° |
| 2026-05-06 18:54 | 53.65785 | 4.30258 | 30989 ft | 457 kts | 2° |
| 2026-05-06 18:55 | 53.68934 | 4.30707 | 31450 ft | 455 kts | 2° |
| 2026-05-06 18:55 | 53.72075 | 4.31153 | 31858 ft | 455 kts | 2° |
| 2026-05-06 18:55 | 53.75176 | 4.31595 | 32258 ft | 454 kts | 2° |
| 2026-05-06 18:55 | 53.78360 | 4.32048 | 32634 ft | 454 kts | 2° |
| 2026-05-06 18:56 | 53.81498 | 4.32496 | 33029 ft | 453 kts | 2° |
| 2026-05-06 18:56 | 53.84627 | 4.32944 | 33398 ft | 453 kts | 2° |
| 2026-05-06 18:56 | 53.87738 | 4.33390 | 33773 ft | 452 kts | 2° |
| 2026-05-06 18:56 | 53.90831 | 4.33836 | 34006 ft | 453 kts | 2° |
| 2026-05-06 18:57 | 53.93976 | 4.34287 | 33997 ft | 453 kts | 2° |
| 2026-05-06 18:57 | 54.00204 | 4.35182 | 34014 ft | 452 kts | 1° |
| 2026-05-06 18:58 | 54.06486 | 4.36086 | 34007 ft | 453 kts | 1° |
| 2026-05-06 18:58 | 54.12807 | 4.36998 | 34105 ft | 462 kts | 1° |
| 2026-05-06 18:58 | 54.15997 | 4.37460 | 34254 ft | 464 kts | 1° |
| 2026-05-06 18:59 | 54.19212 | 4.37926 | 34295 ft | 469 kts | 1° |
| 2026-05-06 18:59 | 54.25748 | 4.38875 | 34175 ft | 471 kts | 1° |
| 2026-05-06 19:00 | 54.32207 | 4.39822 | 34268 ft | 467 kts | 1° |
| 2026-05-06 19:00 | 54.35412 | 4.40293 | 34420 ft | 468 kts | 1° |
| 2026-05-06 19:00 | 54.38665 | 4.40770 | 34466 ft | 471 kts | 1° |
| 2026-05-06 19:01 | 54.45172 | 4.41727 | 34394 ft | 469 kts | 1° |
| 2026-05-06 19:01 | 54.51646 | 4.42684 | 34210 ft | 470 kts | 1° |
| 2026-05-06 19:01 | 54.54905 | 4.43165 | 34072 ft | 470 kts | 1° |
| 2026-05-06 19:02 | 54.58150 | 4.43647 | 34031 ft | 468 kts | 1° |
| 2026-05-06 19:02 | 54.64004 | 4.44515 | 34030 ft | 471 kts | 1° |
| 2026-05-06 19:03 | 54.70505 | 4.45483 | 34027 ft | 470 kts | 1° |
| 2026-05-06 19:03 | 54.77034 | 4.46459 | 34034 ft | 472 kts | 1° |
| 2026-05-06 19:04 | 54.83531 | 4.47432 | 34033 ft | 471 kts | 1° |
| 2026-05-06 19:04 | 54.90064 | 4.48414 | 34034 ft | 471 kts | 1° |
| 2026-05-06 19:05 | 54.96587 | 4.49398 | 34037 ft | 471 kts | 1° |
| 2026-05-06 19:05 | 55.03122 | 4.50386 | 34037 ft | 471 kts | 1° |
| 2026-05-06 19:06 | 55.09632 | 4.51375 | 34042 ft | 471 kts | 1° |
| 2026-05-06 19:06 | 55.16127 | 4.52364 | 34037 ft | 471 kts | 1° |
| 2026-05-06 19:07 | 55.22608 | 4.53355 | 34042 ft | 470 kts | 1° |
| 2026-05-06 19:07 | 55.29147 | 4.54357 | 34041 ft | 471 kts | 1° |
| 2026-05-06 19:08 | 55.35640 | 4.55354 | 34044 ft | 471 kts | 1° |
| 2026-05-06 19:08 | 55.42178 | 4.56363 | 34042 ft | 471 kts | 1° |
| 2026-05-06 19:09 | 55.48679 | 4.57371 | 34038 ft | 470 kts | 1° |
| 2026-05-06 19:09 | 55.55151 | 4.58376 | 34037 ft | 470 kts | 1° |
| 2026-05-06 19:10 | 55.61671 | 4.59392 | 34040 ft | 470 kts | 1° |
| 2026-05-06 19:10 | 55.68156 | 4.60406 | 34042 ft | 470 kts | 1° |
| 2026-05-06 19:11 | 55.74633 | 4.61422 | 34043 ft | 470 kts | 1° |
| 2026-05-06 19:11 | 55.81118 | 4.62442 | 34045 ft | 470 kts | 1° |
| 2026-05-06 19:12 | 55.87631 | 4.63471 | 34043 ft | 470 kts | 0° |
| 2026-05-06 19:12 | 55.94124 | 4.64500 | 34044 ft | 470 kts | 1° |
| 2026-05-06 19:13 | 56.00613 | 4.65532 | 34048 ft | 469 kts | 1° |
| 2026-05-06 19:13 | 56.07086 | 4.66565 | 34048 ft | 470 kts | 1° |
| 2026-05-06 19:14 | 56.13554 | 4.67600 | 34048 ft | 470 kts | 1° |
| 2026-05-06 19:14 | 56.20036 | 4.68641 | 34049 ft | 469 kts | 1° |
| 2026-05-06 19:15 | 56.26532 | 4.69688 | 34048 ft | 468 kts | 1° |
| 2026-05-06 19:15 | 56.32960 | 4.70729 | 34048 ft | 469 kts | 1° |
| 2026-05-06 19:16 | 56.39436 | 4.71778 | 34048 ft | 469 kts | 1° |
| 2026-05-06 19:16 | 56.45943 | 4.72837 | 34047 ft | 469 kts | 1° |
| 2026-05-06 19:17 | 56.52413 | 4.73894 | 34049 ft | 468 kts | 1° |
| 2026-05-06 19:17 | 56.58858 | 4.74950 | 34048 ft | 468 kts | 1° |
| 2026-05-06 19:18 | 56.65321 | 4.76013 | 34049 ft | 467 kts | 1° |
| 2026-05-06 19:18 | 56.71798 | 4.77081 | 34049 ft | 468 kts | 1° |
| 2026-05-06 19:19 | 56.78265 | 4.78153 | 34047 ft | 468 kts | 1° |
| 2026-05-06 19:19 | 56.84713 | 4.79225 | 34047 ft | 468 kts | 1° |
| 2026-05-06 19:20 | 56.91163 | 4.80300 | 34047 ft | 467 kts | 1° |
| 2026-05-06 19:20 | 56.97620 | 4.81380 | 34048 ft | 467 kts | 1° |
| 2026-05-06 19:21 | 57.04080 | 4.82464 | 34050 ft | 467 kts | 1° |
| 2026-05-06 19:21 | 57.10509 | 4.83547 | 34049 ft | 467 kts | 1° |
| 2026-05-06 19:22 | 57.16968 | 4.84285 | 34049 ft | 466 kts | 358° |
| 2026-05-06 19:22 | 57.23397 | 4.84574 | 34046 ft | 464 kts | 356° |
| 2026-05-06 19:23 | 57.29836 | 4.84805 | 34045 ft | 464 kts | 356° |
| 2026-05-06 19:23 | 57.36260 | 4.85077 | 34045 ft | 464 kts | 356° |
| 2026-05-06 19:24 | 57.42684 | 4.85399 | 34044 ft | 463 kts | 356° |
| 2026-05-06 19:24 | 57.49133 | 4.85746 | 34042 ft | 464 kts | 356° |
| 2026-05-06 19:25 | 57.55550 | 4.86100 | 34039 ft | 465 kts | 357° |
| 2026-05-06 19:25 | 57.61989 | 4.86462 | 34038 ft | 464 kts | 356° |
| 2026-05-06 19:26 | 57.68442 | 4.86825 | 34037 ft | 466 kts | 356° |
| 2026-05-06 19:26 | 57.74907 | 4.87193 | 34036 ft | 464 kts | 356° |
| 2026-05-06 19:27 | 57.81347 | 4.87560 | 34033 ft | 465 kts | 356° |
| 2026-05-06 19:27 | 57.87781 | 4.87926 | 34032 ft | 464 kts | 356° |
| 2026-05-06 19:28 | 57.94208 | 4.88295 | 34030 ft | 463 kts | 356° |
| 2026-05-06 19:28 | 58.00631 | 4.88663 | 34028 ft | 464 kts | 356° |
| 2026-05-06 19:29 | 58.07084 | 4.89035 | 34036 ft | 464 kts | 356° |
| 2026-05-06 19:29 | 58.13489 | 4.89405 | 34025 ft | 463 kts | 356° |
| 2026-05-06 19:30 | 58.19888 | 4.89776 | 34024 ft | 464 kts | 356° |
| 2026-05-06 19:30 | 58.26320 | 4.90151 | 34036 ft | 463 kts | 355° |
| 2026-05-06 19:30 | 58.29562 | 4.90338 | 33770 ft | 467 kts | 356° |
| 2026-05-06 19:31 | 58.32782 | 4.90526 | 33399 ft | 463 kts | 356° |
| 2026-05-06 19:31 | 58.35971 | 4.90716 | 33080 ft | 461 kts | 355° |
| 2026-05-06 19:31 | 58.42362 | 4.91092 | 32449 ft | 463 kts | 355° |
| 2026-05-06 19:32 | 58.45563 | 4.91280 | 32099 ft | 463 kts | 355° |
| 2026-05-06 19:32 | 58.48810 | 4.91471 | 31743 ft | 463 kts | 355° |
| 2026-05-06 19:32 | 58.52008 | 4.91660 | 31398 ft | 465 kts | 355° |
| 2026-05-06 19:32 | 58.55196 | 4.91847 | 31027 ft | 467 kts | 355° |
| 2026-05-06 19:33 | 58.58437 | 4.92038 | 30623 ft | 466 kts | 356° |
| 2026-05-06 19:33 | 58.61662 | 4.92230 | 30234 ft | 465 kts | 355° |
| 2026-05-06 19:33 | 58.64888 | 4.92423 | 29842 ft | 465 kts | 355° |
| 2026-05-06 19:33 | 58.68098 | 4.92616 | 29449 ft | 466 kts | 355° |
| 2026-05-06 19:34 | 58.71334 | 4.92809 | 29052 ft | 466 kts | 355° |
| 2026-05-06 19:34 | 58.74566 | 4.93002 | 28647 ft | 466 kts | 355° |
| 2026-05-06 19:34 | 58.77784 | 4.93195 | 28222 ft | 468 kts | 355° |
| 2026-05-06 19:34 | 58.81021 | 4.93390 | 27807 ft | 467 kts | 355° |
| 2026-05-06 19:35 | 58.84285 | 4.93588 | 27383 ft | 467 kts | 355° |
| 2026-05-06 19:35 | 58.87521 | 4.93783 | 26966 ft | 469 kts | 355° |
| 2026-05-06 19:35 | 58.90756 | 4.93977 | 26541 ft | 469 kts | 355° |
| 2026-05-06 19:35 | 58.94014 | 4.94174 | 26121 ft | 469 kts | 355° |
| 2026-05-06 19:36 | 58.97261 | 4.94372 | 25698 ft | 470 kts | 355° |
| 2026-05-06 19:36 | 59.00507 | 4.94572 | 25274 ft | 467 kts | 355° |
| 2026-05-06 19:36 | 59.03724 | 4.94775 | 24862 ft | 460 kts | 355° |
| 2026-05-06 19:36 | 59.06882 | 4.94977 | 24439 ft | 456 kts | 355° |
| 2026-05-06 19:37 | 59.10030 | 4.95173 | 24018 ft | 455 kts | 355° |
| 2026-05-06 19:37 | 59.13204 | 4.95368 | 23594 ft | 451 kts | 355° |
| 2026-05-06 19:37 | 59.16303 | 4.95558 | 23175 ft | 450 kts | 355° |
| 2026-05-06 19:37 | 59.19417 | 4.95749 | 22759 ft | 447 kts | 355° |
| 2026-05-06 19:38 | 59.22492 | 4.95938 | 22341 ft | 445 kts | 355° |
| 2026-05-06 19:38 | 59.25598 | 4.96129 | 21915 ft | 443 kts | 355° |
| 2026-05-06 19:38 | 59.28631 | 4.96315 | 21491 ft | 441 kts | 355° |
| 2026-05-06 19:38 | 59.31694 | 4.96504 | 21077 ft | 437 kts | 355° |
| 2026-05-06 19:39 | 59.34715 | 4.96692 | 20653 ft | 434 kts | 355° |
| 2026-05-06 19:39 | 59.37693 | 4.96874 | 20242 ft | 430 kts | 354° |
| 2026-05-06 19:39 | 59.40632 | 4.96654 | 19817 ft | 422 kts | 347° |
| 2026-05-06 19:39 | 59.43475 | 4.95544 | 19403 ft | 412 kts | 338° |
| 2026-05-06 19:40 | 59.46122 | 4.93505 | 18986 ft | 401 kts | 328° |
| 2026-05-06 19:40 | 59.48335 | 4.90470 | 18581 ft | 389 kts | 310° |
| 2026-05-06 19:40 | 59.49786 | 4.86070 | 18176 ft | 379 kts | 289° |
| 2026-05-06 19:40 | 59.50162 | 4.81103 | 17997 ft | 358 kts | 267° |
| 2026-05-06 19:41 | 59.49691 | 4.76586 | 18040 ft | 326 kts | 254° |
| 2026-05-06 19:41 | 59.48906 | 4.72608 | 18039 ft | 298 kts | 249° |
| 2026-05-06 19:41 | 59.48026 | 4.69135 | 18031 ft | 274 kts | 245° |
| 2026-05-06 19:41 | 59.47124 | 4.66047 | 18056 ft | 253 kts | 244° |
| 2026-05-06 19:42 | 59.46076 | 4.63268 | 18026 ft | 253 kts | 232° |
| 2026-05-06 19:42 | 59.44705 | 4.61070 | 18046 ft | 259 kts | 221° |
| 2026-05-06 19:42 | 59.43117 | 4.59399 | 18055 ft | 263 kts | 212° |
| 2026-05-06 19:42 | 59.41355 | 4.58164 | 18033 ft | 271 kts | 204° |
| 2026-05-06 19:43 | 59.39483 | 4.57572 | 18029 ft | 281 kts | 192° |
| 2026-05-06 19:43 | 59.37499 | 4.57733 | 18037 ft | 286 kts | 184° |
| 2026-05-06 19:43 | 59.35520 | 4.58056 | 18037 ft | 286 kts | 185° |
| 2026-05-06 19:43 | 59.33550 | 4.58329 | 18035 ft | 286 kts | 185° |
| 2026-05-06 19:44 | 59.31558 | 4.58568 | 18027 ft | 294 kts | 186° |
| 2026-05-06 19:44 | 59.29464 | 4.58803 | 18028 ft | 313 kts | 184° |
| 2026-05-06 19:44 | 59.27237 | 4.59375 | 18048 ft | 337 kts | 176° |
| 2026-05-06 19:44 | 59.24937 | 4.60716 | 18034 ft | 351 kts | 163° |
| 2026-05-06 19:45 | 59.22855 | 4.63238 | 18036 ft | 364 kts | 144° |
| 2026-05-06 19:45 | 59.21052 | 4.66975 | 18048 ft | 387 kts | 134° |
| 2026-05-06 19:45 | 59.19427 | 4.71251 | 18031 ft | 407 kts | 126° |
| 2026-05-06 19:45 | 59.18140 | 4.76286 | 18025 ft | 422 kts | 111° |
| 2026-05-06 19:46 | 59.17659 | 4.81912 | 18035 ft | 424 kts | 88° |
| 2026-05-06 19:46 | 59.18238 | 4.87434 | 18042 ft | 420 kts | 64° |
| 2026-05-06 19:46 | 59.19803 | 4.92146 | 18040 ft | 410 kts | 41° |
| 2026-05-06 19:46 | 59.22038 | 4.95404 | 18044 ft | 397 kts | 21° |
| 2026-05-06 19:47 | 59.24557 | 4.97229 | 18037 ft | 387 kts | 7° |
| 2026-05-06 19:47 | 59.27178 | 4.97934 | 18029 ft | 373 kts | 357° |
| 2026-05-06 19:47 | 59.29662 | 4.98035 | 18036 ft | 339 kts | 352° |
| 2026-05-06 19:47 | 59.31900 | 4.97902 | 18044 ft | 311 kts | 349° |
| 2026-05-06 19:48 | 59.33971 | 4.97679 | 18059 ft | 289 kts | 348° |
| 2026-05-06 19:48 | 59.35927 | 4.97425 | 18056 ft | 271 kts | 347° |
| 2026-05-06 19:48 | 59.37784 | 4.97165 | 18029 ft | 272 kts | 347° |
| 2026-05-06 19:48 | 59.39673 | 4.96894 | 18040 ft | 274 kts | 347° |
| 2026-05-06 19:49 | 59.41558 | 4.96590 | 18041 ft | 272 kts | 346° |
| 2026-05-06 19:49 | 59.43465 | 4.96263 | 18047 ft | 271 kts | 346° |
| 2026-05-06 19:49 | 59.45377 | 4.95925 | 18030 ft | 289 kts | 346° |
| 2026-05-06 19:49 | 59.47452 | 4.95553 | 18041 ft | 307 kts | 347° |
| 2026-05-06 19:50 | 59.49575 | 4.95196 | 18044 ft | 311 kts | 347° |
| 2026-05-06 19:50 | 59.51721 | 4.94860 | 18041 ft | 310 kts | 347° |
| 2026-05-06 19:50 | 59.53896 | 4.94522 | 18045 ft | 310 kts | 347° |
| 2026-05-06 19:50 | 59.56012 | 4.94187 | 18040 ft | 310 kts | 347° |
| 2026-05-06 19:51 | 59.58177 | 4.93837 | 18039 ft | 311 kts | 347° |
| 2026-05-06 19:51 | 59.60317 | 4.93486 | 18035 ft | 311 kts | 347° |
| 2026-05-06 19:51 | 59.62471 | 4.93133 | 18035 ft | 309 kts | 347° |
| 2026-05-06 19:51 | 59.64616 | 4.92781 | 18033 ft | 309 kts | 347° |
| 2026-05-06 19:52 | 59.66752 | 4.92429 | 18029 ft | 309 kts | 347° |
| 2026-05-06 19:52 | 59.68858 | 4.92081 | 18030 ft | 308 kts | 347° |
| 2026-05-06 19:52 | 59.71005 | 4.91726 | 18037 ft | 309 kts | 347° |
| 2026-05-06 19:52 | 59.73147 | 4.91372 | 18033 ft | 307 kts | 347° |
| 2026-05-06 19:53 | 59.75256 | 4.91024 | 18030 ft | 307 kts | 347° |
| 2026-05-06 19:53 | 59.77365 | 4.90673 | 18032 ft | 308 kts | 347° |
| 2026-05-06 19:53 | 59.79491 | 4.90247 | 18032 ft | 306 kts | 345° |
| 2026-05-06 19:53 | 59.81599 | 4.89670 | 18033 ft | 304 kts | 343° |
| 2026-05-06 19:54 | 59.83676 | 4.89037 | 18040 ft | 305 kts | 343° |
| 2026-05-06 19:54 | 59.85757 | 4.88402 | 18036 ft | 305 kts | 343° |
| 2026-05-06 19:54 | 59.87843 | 4.87784 | 18031 ft | 303 kts | 343° |
| 2026-05-06 19:54 | 59.89940 | 4.87177 | 18037 ft | 305 kts | 343° |
| 2026-05-06 19:55 | 59.92029 | 4.86578 | 18035 ft | 304 kts | 343° |
| 2026-05-06 19:55 | 59.94139 | 4.85974 | 18027 ft | 303 kts | 343° |
| 2026-05-06 19:55 | 59.96209 | 4.85380 | 18033 ft | 304 kts | 343° |
| 2026-05-06 19:55 | 59.98307 | 4.84781 | 17967 ft | 306 kts | 343° |
| 2026-05-06 19:56 | 60.00426 | 4.84171 | 17463 ft | 308 kts | 344° |
| 2026-05-06 19:56 | 60.02518 | 4.83572 | 16957 ft | 308 kts | 344° |
| 2026-05-06 19:56 | 60.04649 | 4.82960 | 16433 ft | 308 kts | 345° |
| 2026-05-06 19:56 | 60.06744 | 4.82357 | 15925 ft | 307 kts | 345° |
| 2026-05-06 19:57 | 60.08840 | 4.81749 | 15410 ft | 307 kts | 345° |
| 2026-05-06 19:57 | 60.10966 | 4.81130 | 14877 ft | 306 kts | 345° |
| 2026-05-06 19:57 | 60.13042 | 4.80528 | 14366 ft | 306 kts | 345° |
| 2026-05-06 19:57 | 60.15144 | 4.79919 | 13820 ft | 301 kts | 346° |
| 2026-05-06 19:58 | 60.17150 | 4.79341 | 13385 ft | 289 kts | 346° |
| 2026-05-06 19:58 | 60.19102 | 4.78776 | 12942 ft | 280 kts | 346° |
| 2026-05-06 19:58 | 60.21009 | 4.78217 | 12495 ft | 272 kts | 347° |
| 2026-05-06 19:58 | 60.22831 | 4.77678 | 12056 ft | 265 kts | 347° |
| 2026-05-06 19:59 | 60.24642 | 4.77144 | 11603 ft | 259 kts | 347° |
| 2026-05-06 19:59 | 60.26392 | 4.76631 | 11157 ft | 254 kts | 348° |
| 2026-05-06 19:59 | 60.28131 | 4.76119 | 10702 ft | 250 kts | 348° |
| 2026-05-06 19:59 | 60.29835 | 4.75616 | 10319 ft | 248 kts | 348° |
| 2026-05-06 20:00 | 60.31538 | 4.75114 | 9884 ft | 248 kts | 349° |
| 2026-05-06 20:00 | 60.33240 | 4.74612 | 9426 ft | 248 kts | 349° |
| 2026-05-06 20:00 | 60.34932 | 4.74114 | 8982 ft | 249 kts | 349° |
| 2026-05-06 20:00 | 60.36642 | 4.73608 | 8533 ft | 249 kts | 349° |
| 2026-05-06 20:01 | 60.38340 | 4.73109 | 8071 ft | 246 kts | 349° |
| 2026-05-06 20:01 | 60.40014 | 4.72588 | 7657 ft | 238 kts | 346° |
| 2026-05-06 20:01 | 60.41582 | 4.71699 | 7409 ft | 235 kts | 339° |
| 2026-05-06 20:01 | 60.42937 | 4.70702 | 7175 ft | 234 kts | 337° |
| 2026-05-06 20:02 | 60.44441 | 4.69549 | 6985 ft | 231 kts | 337° |
| 2026-05-06 20:02 | 60.45957 | 4.68543 | 6984 ft | 234 kts | 346° |
| 2026-05-06 20:02 | 60.47596 | 4.68321 | 6929 ft | 239 kts | 5° |
| 2026-05-06 20:02 | 60.49127 | 4.69550 | 6670 ft | 242 kts | 37° |
| 2026-05-06 20:03 | 60.50131 | 4.72249 | 6411 ft | 243 kts | 66° |
| 2026-05-06 20:03 | 60.50559 | 4.75560 | 6152 ft | 243 kts | 85° |
| 2026-05-06 20:03 | 60.50460 | 4.78911 | 5885 ft | 239 kts | 100° |
| 2026-05-06 20:03 | 60.50137 | 4.82200 | 5610 ft | 231 kts | 102° |
| 2026-05-06 20:04 | 60.49836 | 4.85333 | 5342 ft | 224 kts | 100° |
| 2026-05-06 20:04 | 60.49592 | 4.88370 | 5079 ft | 216 kts | 99° |
| 2026-05-06 20:04 | 60.49381 | 4.91346 | 4841 ft | 211 kts | 98° |
| 2026-05-06 20:04 | 60.49164 | 4.94286 | 4580 ft | 210 kts | 99° |
| 2026-05-06 20:05 | 60.48942 | 4.97186 | 4317 ft | 209 kts | 99° |
| 2026-05-06 20:05 | 60.48725 | 5.00069 | 4061 ft | 208 kts | 99° |
| 2026-05-06 20:05 | 60.48503 | 5.02987 | 3801 ft | 208 kts | 99° |
| 2026-05-06 20:05 | 60.48270 | 5.05850 | 3545 ft | 207 kts | 100° |
| 2026-05-06 20:06 | 60.48013 | 5.08727 | 3282 ft | 207 kts | 101° |
| 2026-05-06 20:06 | 60.47731 | 5.11545 | 3034 ft | 205 kts | 102° |
| 2026-05-06 20:06 | 60.47414 | 5.14309 | 2995 ft | 197 kts | 104° |
| 2026-05-06 20:06 | 60.47066 | 5.16983 | 2983 ft | 193 kts | 106° |
| 2026-05-06 20:07 | 60.46704 | 5.19484 | 2987 ft | 179 kts | 107° |
| 2026-05-06 20:07 | 60.46072 | 5.21622 | 2992 ft | 179 kts | 146° |
| 2026-05-06 20:07 | 60.44908 | 5.22164 | 2994 ft | 176 kts | 197° |
| 2026-05-06 20:07 | 60.43851 | 5.21053 | 2994 ft | 173 kts | 214° |
| 2026-05-06 20:08 | 60.42828 | 5.19758 | 2993 ft | 172 kts | 213° |
| 2026-05-06 20:08 | 60.41799 | 5.18503 | 2997 ft | 174 kts | 212° |
| 2026-05-06 20:08 | 60.40767 | 5.17246 | 2994 ft | 175 kts | 210° |
| 2026-05-06 20:08 | 60.39582 | 5.16737 | 2755 ft | 181 kts | 174° |
| 2026-05-06 20:09 | 60.38377 | 5.17645 | 2254 ft | 194 kts | 149° |
| 2026-05-06 20:09 | 60.37238 | 5.19011 | 2089 ft | 180 kts | 153° |
| 2026-05-06 20:09 | 60.36085 | 5.19718 | 1665 ft | 178 kts | 174° |
| 2026-05-06 20:09 | 60.34864 | 5.19988 | 1258 ft | 176 kts | 173° |
| 2026-05-06 20:10 | 60.33655 | 5.20359 | 806 ft | 176 kts | 172° |
| 2026-05-06 20:10 | 60.32519 | 5.20740 | 720 ft | 152 kts | 170° |
| 2026-05-06 20:10 | 60.31461 | 5.21103 | 449 ft | 150 kts | 172° |
| 2026-05-06 20:10 | 60.30474 | 5.21429 | 200 ft | 140 kts | 171° |
| 2026-05-06 20:11 | 60.29684 | 5.21691 | 142 ft | 63 kts | 170° |
| 2026-05-06 20:11 | 60.29558 | 5.21736 | 144 ft | 0 kts | 170° |